Time;durP1;ratioP1;P1;durP2;ratioP2;P2;SDS_P1;SDS_P2;PMS_P1;PMS_P2;Temp;Humidity;BMP_temperature;BMP_pressure;BME280_temperature;BME280_humidity;BME280_pressure;Samples;Min_cycle;Max_cycle;Signal;HPM_P1;HPM_P2
2022/02/10 00:20:10;;;;;;;37.05;19.33;;;;;;;0.45;75.03;96531.69;5039076;28;20057;-79
2022/02/10 00:36:00;;;;;;;35.97;18.70;;;;;;;0.21;74.27;96545.34;5043239;28;20458;-79
2022/02/10 00:38:31;;;;;;;31.33;18.17;;;;;;;0.30;73.74;96544.81;5043937;28;20029;-80
2022/02/10 00:40:56;;;;;;;41.10;19.27;;;;;;;0.31;74.22;96546.50;5045439;28;20029;-78
2022/02/10 00:43:22;;;;;;;32.15;18.75;;;;;;;0.35;73.33;96544.56;5040593;28;20087;-78
2022/02/10 00:45:47;;;;;;;39.15;19.92;;;;;;;0.41;73.31;96545.97;5044435;28;20472;-78
2022/02/10 00:48:13;;;;;;;37.92;19.98;;;;;;;0.39;73.19;96540.78;5041605;28;20029;-78
2022/02/10 00:50:42;;;;;;;35.47;20.17;;;;;;;0.45;72.72;96539.63;5043413;28;20025;-78
2022/02/10 00:53:29;;;;;;;43.92;21.73;;;;;;;0.32;74.00;96545.56;5026136;28;20039;-78
2022/02/10 00:55:55;;;;;;;46.42;22.65;;;;;;;0.29;74.14;96542.25;5043180;28;20495;-78
2022/02/10 00:58:30;;;;;;;45.05;21.80;;;;;;;0.17;74.82;96549.06;5043698;28;20052;-80
2022/02/10 01:30:13;;;;;;;246.30;80.30;;;;;;;0.16;74.53;96534.19;5029827;28;20076;-79
2022/02/10 01:32:41;;;;;;;225.73;79.57;;;;;;;0.11;75.44;96540.53;5025127;28;20045;-79
2022/02/10 01:35:09;;;;;;;223.82;69.78;;;;;;;0.14;75.40;96534.25;5039544;28;20471;-81
2022/02/10 01:37:36;;;;;;;200.70;65.10;;;;;;;0.22;75.10;96526.78;5024842;28;20032;-79
2022/02/10 01:40:10;;;;;;;136.38;48.38;;;;;;;0.35;75.20;96534.84;5024310;28;20024;-79
2022/02/10 02:04:13;;;;;;;64.57;33.00;;;;;;;0.01;76.10;96517.41;5037606;28;20059;-79
2022/02/10 02:06:44;;;;;;;66.50;31.02;;;;;;;0.07;76.22;96517.06;5041263;28;20491;-79
2022/02/10 02:09:12;;;;;;;65.88;30.13;;;;;;;-0.10;76.73;96515.34;5039270;28;20527;-78
2022/02/10 02:11:40;;;;;;;52.05;24.15;;;;;;;-0.01;77.14;96514.84;5026280;28;20063;-79
2022/02/10 02:14:12;;;;;;;59.25;28.33;;;;;;;0.03;76.48;96516.41;5023678;28;20025;-78
2022/02/10 02:16:44;;;;;;;48.97;25.75;;;;;;;0.13;76.27;96506.16;5042042;28;20221;-81
2022/02/10 02:19:09;;;;;;;53.08;27.50;;;;;;;0.21;76.15;96505.75;5041992;28;20056;-79
2022/02/10 02:21:36;;;;;;;48.50;26.98;;;;;;;0.34;75.13;96516.44;5043131;28;20029;-79
2022/02/10 02:24:02;;;;;;;52.00;27.23;;;;;;;0.38;74.92;96510.06;5009127;28;20128;-78
2022/02/10 02:26:28;;;;;;;64.18;29.67;;;;;;;0.22;75.08;96518.00;5041597;28;20064;-78
2022/02/10 02:28:59;;;;;;;69.15;30.33;;;;;;;0.20;73.58;96517.22;5041125;28;20025;-79
2022/02/10 02:31:30;;;;;;;59.33;28.75;;;;;;;0.20;73.65;96517.22;5040296;28;20036;-78
2022/02/10 03:06:36;;;;;;;52.67;26.98;;;;;;;-0.51;75.10;96523.63;5041851;28;20076;-78
2022/02/10 03:09:08;;;;;;;52.53;27.33;;;;;;;-0.56;75.40;96514.25;5041190;28;20496;-78
2022/02/10 03:11:35;;;;;;;51.58;28.17;;;;;;;-0.51;75.57;96526.25;5040550;28;20028;-79
2022/02/10 03:14:07;;;;;;;49.08;24.25;;;;;;;-0.58;75.56;96524.88;5025513;28;20033;-80
2022/02/10 04:18:39;;;;;;;30.77;16.77;;;;;;;-0.98;74.87;96519.06;5027059;28;20025;-77
2022/02/10 04:58:47;;;;;;;36.50;19.52;;;;;;;-1.13;74.45;96537.34;5028172;28;20113;-84
2022/02/10 05:01:01;;;;;;;57.05;24.52;;;;;;;-1.11;73.24;96546.00;5030619;28;20116;-81
2022/02/10 05:35:33;;;;;;;69.75;33.10;;;;;;;-1.24;72.66;96556.28;5043395;28;20037;-77
2022/02/10 05:45:51;;;;;;;80.53;36.92;;;;;;;-1.21;72.51;96564.03;5020899;28;20037;-78
2022/02/10 06:43:36;;;;;;;30.48;17.42;;;;;;;0.31;70.13;96580.81;5041395;28;20435;-79
2022/02/10 06:52:42;;;;;;;29.40;17.50;;;;;;;0.64;69.73;96588.72;5040901;28;20060;-79
2022/02/10 07:06:16;;;;;;;32.63;18.95;;;;;;;1.10;68.09;96580.81;5033851;28;20040;-79
2022/02/10 07:54:36;;;;;;;28.30;17.33;;;;;;;4.47;59.79;96568.06;5028289;28;20026;-80
2022/02/10 08:53:21;;;;;;;25.00;15.80;;;;;;;6.55;56.40;96550.66;5026813;28;20040;-79
2022/02/10 08:57:04;;;;;;;26.13;15.55;;;;;;;6.62;56.50;96551.03;5027543;28;20040;-76
2022/02/10 09:00:00;;;;;;;23.33;15.25;;;;;;;6.75;56.52;96563.34;5027860;28;20553;-76
2022/02/10 09:04:59;;;;;;;28.90;18.73;;;;;;;6.78;57.21;96557.78;5027531;28;20029;-78
2022/02/10 09:56:06;;;;;;;21.50;12.75;;;;;;;7.89;56.24;96511.22;5025231;28;20037;-73
2022/02/10 10:04:18;;;;;;;21.98;12.93;;;;;;;7.90;56.27;96507.56;5025616;28;20052;-73
2022/02/10 10:14:42;;;;;;;18.48;12.50;;;;;;;7.71;56.93;96482.47;5025551;28;20026;-74
2022/02/10 10:20:06;;;;;;;18.10;12.23;;;;;;;7.86;57.05;96468.75;5024399;28;20563;-74
2022/02/10 10:50:49;;;;;;;24.33;14.77;;;;;;;8.15;59.72;96430.59;5024673;28;20044;-74
2022/02/10 11:38:26;;;;;;;19.98;13.82;;;;;;;9.55;56.92;96360.78;5025083;28;20083;-74
2022/02/10 11:40:57;;;;;;;20.17;13.27;;;;;;;9.68;55.84;96360.44;5022962;28;20087;-74
2022/02/10 11:43:46;;;;;;;21.65;11.88;;;;;;;9.79;55.45;96348.69;5024899;28;20129;-74
2022/02/10 11:47:09;;;;;;;18.67;12.15;;;;;;;9.95;56.15;96348.03;5024536;28;20454;-74
2022/02/10 12:33:30;;;;;;;15.60;9.93;;;;;;;11.44;50.34;96288.50;5028277;28;20119;-75
2022/02/10 13:23:24;;;;;;;17.13;8.85;;;;;;;12.69;47.63;96266.38;5026015;28;20067;-74
2022/02/10 14:18:04;;;;;;;12.02;5.22;;;;;;;14.57;40.11;96221.84;5024488;28;20496;-74
2022/02/10 14:25:40;;;;;;;11.52;5.47;;;;;;;14.70;40.01;96210.41;5024917;28;20030;-74
2022/02/10 14:25:56;;;;;;;10.18;5.45;;;;;;;14.78;39.82;96212.19;5022091;28;20061;-75
2022/02/10 14:28:22;;;;;;;;;;;;;;;14.73;39.30;96209.19;5026741;28;20033;-74
2022/02/10 14:30:50;;;;;;;12.98;5.28;;;;;;;14.52;40.03;96205.34;5024301;28;19920;-74
2022/02/10 14:33:22;;;;;;;8.57;5.55;;;;;;;14.39;39.72;96206.81;5024179;28;20030;-73
2022/02/10 14:35:56;;;;;;;7.68;4.97;;;;;;;14.25;40.10;96200.34;5026050;28;20030;-74
2022/02/10 15:48:46;;;;;;;39.17;22.92;;;;;;;11.07;48.45;96184.97;5023283;28;20514;-75
2022/02/10 16:17:26;;;;;;;53.03;28.63;;;;;;;10.04;51.00;96171.25;5026495;28;20492;-75
2022/02/10 16:19:53;;;;;;;55.58;29.02;;;;;;;9.89;52.01;96186.03;5028601;28;20050;-76
2022/02/10 16:27:49;;;;;;;57.90;31.17;;;;;;;9.84;52.33;96184.81;5015701;28;20033;-74
2022/02/10 16:30:14;;;;;;;69.22;32.92;;;;;;;9.76;52.85;96189.09;5010576;28;20029;-72
2022/02/10 16:32:40;;;;;;;61.45;33.70;;;;;;;9.74;53.03;96190.22;5027396;28;20022;-74
2022/02/10 16:35:07;;;;;;;58.83;33.70;;;;;;;9.72;53.41;96200.28;5027432;28;20021;-76
2022/02/10 16:37:35;;;;;;;62.35;35.03;;;;;;;9.61;53.44;96191.47;5027999;28;20026;-77
2022/02/10 16:40:00;;;;;;;60.15;34.40;;;;;;;9.60;53.76;96199.66;5026353;28;20025;-77
2022/02/10 16:42:26;;;;;;;62.83;33.67;;;;;;;9.54;53.71;96194.91;5010176;28;20335;-77
2022/02/10 16:44:52;;;;;;;59.53;35.28;;;;;;;9.43;54.32;96215.53;5026630;28;20030;-74
2022/02/10 16:47:18;;;;;;;78.47;35.88;;;;;;;9.31;54.58;96206.03;5027445;28;20052;-75
2022/02/10 16:49:49;;;;;;;69.82;36.30;;;;;;;9.19;54.78;96206.22;5028031;28;20484;-74
2022/02/10 16:52:20;;;;;;;67.90;36.47;;;;;;;9.15;55.21;96212.88;5010251;28;20124;-76
2022/02/10 16:54:48;;;;;;;72.00;35.70;;;;;;;9.10;55.05;96220.50;5026898;28;20044;-76
2022/02/10 17:20:47;;;;;;;69.35;34.00;;;;;;;7.83;57.13;96217.97;5027177;28;20150;-74
2022/02/10 17:26:21;;;;;;;63.97;32.92;;;;;;;7.49;58.48;96228.06;5026043;28;20105;-78
2022/02/10 17:28:47;;;;;;;65.78;32.65;;;;;;;7.41;58.70;96230.56;5026101;28;20034;-74
2022/02/10 17:33:53;;;;;;;58.17;33.50;;;;;;;7.26;59.31;96232.75;5026849;28;20061;-74
2022/02/10 17:37:09;;;;;;;66.35;34.33;;;;;;;7.14;59.50;96229.38;5026399;28;21094;-73
2022/02/10 17:44:52;;;;;;;64.93;33.75;;;;;;;6.97;60.37;96234.38;5025313;28;20051;-74
2022/02/10 17:52:57;;;;;;;62.33;32.08;;;;;;;6.85;61.11;96232.78;5024776;28;20120;-75
2022/02/10 17:55:23;;;;;;;60.97;32.42;;;;;;;6.78;61.75;96235.13;5025448;28;20476;-74
2022/02/10 17:57:49;;;;;;;63.45;31.60;;;;;;;6.71;61.77;96237.47;5007756;28;20167;-74
2022/02/10 18:00:15;;;;;;;55.70;31.92;;;;;;;6.62;61.38;96241.81;5025321;28;20108;-74
2022/02/10 18:02:40;;;;;;;55.25;32.70;;;;;;;6.53;61.26;96243.41;5008276;28;20056;-75
2022/02/10 18:05:11;;;;;;;54.45;30.27;;;;;;;6.47;61.56;96233.28;5026056;28;20548;-73
2022/02/10 18:07:38;;;;;;;53.67;31.15;;;;;;;6.38;61.04;96234.94;5026749;28;20060;-73
2022/02/10 18:10:30;;;;;;;56.47;30.70;;;;;;;6.31;62.24;96233.75;5008027;28;20053;-75
2022/02/10 18:13:22;;;;;;;63.97;31.85;;;;;;;6.21;62.55;96238.19;5026012;28;20116;-74
2022/02/10 18:15:53;;;;;;;58.55;31.13;;;;;;;6.09;61.98;96237.41;5024844;28;20496;-74
2022/02/10 18:18:46;;;;;;;54.45;30.83;;;;;;;5.98;62.24;96235.59;5025683;28;20541;-74
2022/02/10 18:26:58;;;;;;;53.50;30.77;;;;;;;5.75;63.35;96235.69;5025161;28;20361;-75
2022/02/10 19:07:17;;;;;;;50.40;27.40;;;;;;;5.24;62.78;96273.44;5025225;28;20441;-74
2022/02/10 19:09:45;;;;;;;65.18;33.75;;;;;;;5.15;63.24;96274.16;5024470;28;20116;-73
2022/02/10 19:12:17;;;;;;;54.28;28.85;;;;;;;5.11;61.91;96275.41;5025424;28;20152;-73
2022/02/10 19:14:50;;;;;;;49.47;27.38;;;;;;;4.97;62.02;96277.31;5023348;28;20514;-74
2022/02/10 19:17:16;;;;;;;57.08;31.08;;;;;;;4.98;63.71;96273.69;5008595;28;20539;-74
2022/02/10 19:19:41;;;;;;;57.65;29.80;;;;;;;4.96;62.05;96275.63;5024754;28;20042;-74
2022/02/10 19:22:07;;;;;;;60.30;31.45;;;;;;;4.85;62.22;96272.97;5023794;28;20076;-74
2022/02/10 19:24:32;;;;;;;63.63;33.00;;;;;;;4.82;63.43;96280.22;5007049;28;20064;-73
2022/02/10 19:26:58;;;;;;;59.53;30.55;;;;;;;4.82;64.28;96274.91;5025158;28;20087;-73
2022/02/10 19:29:23;;;;;;;56.42;32.78;;;;;;;4.78;64.49;96273.47;5007066;28;20029;-74
2022/02/10 19:31:50;;;;;;;61.83;32.08;;;;;;;4.80;63.95;96281.31;5023173;28;20029;-73
2022/02/10 19:34:16;;;;;;;58.30;32.40;;;;;;;4.75;64.10;96279.03;5023955;28;20415;-74
2022/02/10 19:36:41;;;;;;;67.45;35.63;;;;;;;4.78;64.50;96280.56;5027103;28;20030;-74
2022/02/10 19:39:09;;;;;;;64.28;34.17;;;;;;;4.76;64.51;96280.69;5028940;28;20021;-73
2022/02/10 19:41:36;;;;;;;66.85;34.22;;;;;;;4.67;64.25;96276.09;5027441;28;20032;-72
2022/02/10 19:44:04;;;;;;;91.68;47.80;;;;;;;4.62;65.12;96279.13;5029182;28;20025;-73
2022/02/10 19:46:29;;;;;;;98.45;50.22;;;;;;;4.61;65.12;96276.59;5028990;28;20034;-73
2022/02/10 19:48:55;;;;;;;142.30;60.15;;;;;;;4.59;65.23;96276.72;5027464;28;20400;-72
2022/02/10 19:51:20;;;;;;;153.68;68.78;;;;;;;4.59;66.31;96276.72;5027666;28;20464;-74
2022/02/10 19:53:47;;;;;;;136.10;58.80;;;;;;;4.57;66.19;96274.16;5026564;28;20411;-74
2022/02/10 19:56:14;;;;;;;132.07;61.38;;;;;;;4.61;66.32;96280.06;5011110;28;20076;-76
2022/02/10 19:58:39;;;;;;;137.77;64.13;;;;;;;4.61;66.23;96276.59;5026699;28;20104;-74
2022/02/10 20:01:05;;;;;;;107.25;52.92;;;;;;;4.58;65.67;96272.34;5027860;28;20037;-73
2022/02/10 20:03:33;;;;;;;93.43;46.50;;;;;;;4.45;64.69;96272.44;5026915;28;20032;-76
2022/02/10 20:06:00;;;;;;;97.25;47.10;;;;;;;4.38;65.37;96271.22;5028545;28;20440;-73
2022/02/10 20:08:26;;;;;;;90.75;43.22;;;;;;;4.33;65.27;96271.59;5011131;28;20021;-73
2022/02/10 20:10:53;;;;;;;84.03;42.42;;;;;;;4.19;64.45;96268.16;5027772;28;20499;-75
2022/02/10 20:13:20;;;;;;;79.07;42.38;;;;;;;4.13;65.32;96276.59;5010736;28;20026;-74
2022/02/10 20:15:46;;;;;;;85.38;43.30;;;;;;;4.09;65.83;96277.81;5026770;28;20048;-74
2022/02/10 20:18:14;;;;;;;78.57;39.88;;;;;;;4.07;65.11;96272.59;5027375;28;20424;-74
2022/02/10 20:20:45;;;;;;;85.03;43.20;;;;;;;4.03;65.37;96275.63;5026521;28;20038;-74
2022/02/10 20:23:11;;;;;;;91.50;43.10;;;;;;;4.01;65.70;96280.19;5027131;28;20104;-74
2022/02/10 20:25:36;;;;;;;80.22;40.42;;;;;;;3.99;65.14;96276.78;5027008;28;20087;-76
2022/02/10 20:28:03;;;;;;;88.25;43.28;;;;;;;3.85;66.33;96272.50;5026273;28;20100;-75
2022/02/10 20:30:28;;;;;;;104.13;44.17;;;;;;;3.75;66.73;96270.56;5027045;28;20029;-75
2022/02/10 20:32:54;;;;;;;101.65;45.22;;;;;;;3.70;66.62;96270.91;5026323;28;20029;-74
2022/02/10 20:35:20;;;;;;;95.53;46.70;;;;;;;3.67;66.40;96275.56;5027298;28;20022;-75
2022/02/10 20:37:45;;;;;;;163.60;70.00;;;;;;;3.72;66.47;96270.78;5027652;28;20026;-75
2022/02/10 20:40:11;;;;;;;172.15;77.75;;;;;;;3.72;67.04;96262.81;5026916;28;20113;-74
2022/02/10 20:42:37;;;;;;;176.05;78.78;;;;;;;3.82;67.00;96266.47;5026189;28;20021;-73
2022/02/10 20:45:04;;;;;;;189.95;83.88;;;;;;;3.81;67.46;96256.81;5026346;28;20061;-73
2022/02/10 20:47:29;;;;;;;175.20;79.88;;;;;;;3.81;67.58;96259.47;5026493;28;20476;-73
2022/02/10 20:49:55;;;;;;;182.95;84.40;;;;;;;3.88;67.40;96256.34;5027095;28;20032;-73
2022/02/10 20:52:23;;;;;;;168.45;76.90;;;;;;;3.90;67.40;96254.44;5026756;28;20033;-73
2022/02/10 20:54:49;;;;;;;125.72;59.95;;;;;;;3.82;66.36;96249.72;5025992;28;20035;-75
2022/02/10 20:57:14;;;;;;;112.75;53.70;;;;;;;3.69;65.64;96239.16;5027781;28;20029;-75
2022/02/10 20:59:43;;;;;;;104.05;51.30;;;;;;;3.58;65.12;96240.78;5027220;28;20036;-75
2022/02/10 21:02:12;;;;;;;106.10;50.08;;;;;;;3.43;65.42;96244.59;5026432;28;20499;-73
2022/02/10 21:04:51;;;;;;;100.65;49.17;;;;;;;3.37;65.41;96240.56;5026397;28;20027;-78
2022/02/10 21:07:29;;;;;;;102.38;49.35;;;;;;;3.29;65.78;96238.47;5025861;28;20025;-73
2022/02/10 21:09:59;;;;;;;97.60;48.78;;;;;;;3.27;66.01;96240.41;5027790;28;20059;-73
2022/02/10 21:12:28;;;;;;;95.95;47.33;;;;;;;3.16;65.87;96240.34;5027117;28;20036;-74
2022/02/10 21:14:54;;;;;;;93.30;46.55;;;;;;;3.10;66.76;96233.66;5026383;28;20025;-73
2022/02/10 21:17:24;;;;;;;109.05;51.72;;;;;;;3.09;66.90;96231.97;5025966;28;20025;-74
2022/02/10 21:19:49;;;;;;;100.88;49.28;;;;;;;3.05;66.07;96228.69;5026551;28;20079;-72
2022/02/10 21:22:19;;;;;;;97.13;45.88;;;;;;;2.95;66.80;96220.56;5026104;28;20046;-74
2022/02/10 21:24:54;;;;;;;94.43;46.55;;;;;;;2.81;66.80;96221.53;5026469;28;20043;-73
2022/02/10 21:30:01;;;;;;;116.50;53.47;;;;;;;2.69;68.15;96215.31;5025993;28;20097;-75
2022/02/10 21:32:28;;;;;;;111.65;52.78;;;;;;;2.63;68.24;96215.75;5025826;28;20053;-74
2022/02/10 21:35:22;;;;;;;113.00;52.20;;;;;;;2.67;68.43;96211.09;5025599;28;20079;-74
2022/02/10 21:57:08;;;;;;;89.30;43.78;;;;;;;2.51;68.72;96222.75;5025563;28;20114;-73
2022/02/10 22:21:00;;;;;;;78.95;38.38;;;;;;;2.54;68.84;96216.38;5024178;28;20151;-74
2022/02/10 22:23:27;;;;;;;92.97;44.15;;;;;;;2.47;68.99;96215.97;5025150;28;20040;-73
2022/02/10 22:25:59;;;;;;;108.10;45.58;;;;;;;2.44;68.64;96213.53;5025580;28;20025;-74
2022/02/10 22:31:06;;;;;;;146.07;58.25;;;;;;;2.31;68.77;96218.84;5024543;28;20029;-73
2022/02/10 22:33:48;;;;;;;143.13;54.20;;;;;;;2.20;68.67;96212.50;5025206;28;20109;-73
2022/02/10 22:36:16;;;;;;;122.10;50.30;;;;;;;2.18;68.25;96209.09;5026094;28;20037;-73
2022/02/10 22:38:42;;;;;;;129.00;51.83;;;;;;;2.14;68.08;96198.84;5025458;28;20061;-73
2022/02/10 22:41:12;;;;;;;131.23;50.53;;;;;;;2.05;68.29;96201.16;5008033;28;20033;-73
2022/02/10 22:43:41;;;;;;;151.27;55.55;;;;;;;2.07;68.25;96193.97;5025783;28;20025;-74
2022/02/10 22:46:07;;;;;;;145.65;54.67;;;;;;;2.07;68.60;96193.97;5025186;28;20061;-74
2022/02/10 22:48:33;;;;;;;102.00;45.40;;;;;;;1.97;67.29;96191.09;5025954;28;20412;-74
2022/02/10 22:50:58;;;;;;;92.15;43.45;;;;;;;1.87;67.47;96195.31;5023414;28;20026;-73
2022/02/10 22:53:24;;;;;;;102.15;45.30;;;;;;;1.83;66.98;96188.53;5025923;28;20025;-73
2022/02/10 22:55:49;;;;;;;98.28;44.97;;;;;;;1.73;66.33;96185.66;5025223;28;20466;-73
2022/02/10 22:58:15;;;;;;;143.55;55.65;;;;;;;1.71;67.44;96188.41;5024187;28;20029;-74
2022/02/10 23:00:47;;;;;;;134.20;52.97;;;;;;;1.71;69.10;96193.69;5025283;28;20480;-74
2022/02/10 23:03:20;;;;;;;120.45;50.05;;;;;;;1.69;68.29;96189.47;5024042;28;20033;-72
2022/02/10 23:05:46;;;;;;;123.55;50.25;;;;;;;1.70;69.16;96188.53;5024451;28;20228;-73
2022/02/10 23:08:12;;;;;;;121.00;51.50;;;;;;;1.64;68.84;96189.78;5023057;28;20120;-72
2022/02/10 23:10:58;;;;;;;133.63;55.97;;;;;;;1.65;68.00;96185.34;5023422;28;20052;-73
2022/02/10 23:13:27;;;;;;;159.40;63.25;;;;;;;1.68;69.07;96179.84;5024623;28;20489;-73
2022/02/10 23:15:53;;;;;;;129.05;54.38;;;;;;;1.57;67.59;96180.56;5024214;28;20052;-72
2022/02/10 23:18:26;;;;;;;144.48;63.42;;;;;;;1.58;68.53;96183.09;5023472;28;20060;-74
2022/02/10 23:20:54;;;;;;;129.25;54.45;;;;;;;1.57;67.11;96185.84;5023428;28;20046;-74
2022/02/10 23:23:20;;;;;;;123.35;52.65;;;;;;;1.54;68.07;96180.75;5024077;28;20033;-73
2022/02/10 23:25:46;;;;;;;120.63;54.75;;;;;;;1.50;68.43;96177.47;5006859;28;20033;-73
2022/02/10 23:28:19;;;;;;;125.25;55.53;;;;;;;1.51;67.87;96173.03;5023742;28;20148;-73
2022/02/10 23:30:48;;;;;;;122.13;53.75;;;;;;;1.47;67.66;96167.97;5023415;28;20395;-73
2022/02/10 23:33:24;;;;;;;108.10;50.78;;;;;;;1.50;67.58;96169.53;5023761;28;20030;-73
2022/02/10 23:38:30;;;;;;;87.82;44.55;;;;;;;1.38;67.83;96167.72;5022936;28;20484;-73
2022/02/10 23:41:45;;;;;;;94.70;44.17;;;;;;;1.46;67.80;96162.78;5024011;28;20480;-73
2022/02/10 23:43:56;;;;;;;84.82;40.95;;;;;;;1.47;67.90;96170.59;5023660;28;20036;-73
2022/02/10 23:46:22;;;;;;;73.35;37.63;;;;;;;1.42;67.12;96169.22;5023504;28;20030;-73
2022/02/10 23:48:48;;;;;;;66.72;35.47;;;;;;;1.32;67.55;96161.88;5023789;28;20092;-73
2022/02/10 23:51:13;;;;;;;64.80;35.25;;;;;;;1.30;67.84;96169.09;5006275;28;20488;-73
2022/02/10 23:53:39;;;;;;;72.47;37.25;;;;;;;1.27;68.33;96171.94;5023920;28;20029;-73
2022/02/10 23:56:08;;;;;;;98.47;43.85;;;;;;;1.33;69.32;96170.66;5022929;28;20503;-73
2022/02/10 23:58:49;;;;;;;98.22;47.45;;;;;;;1.35;69.81;96169.59;5023787;28;20029;-73
